Terminal Aerodrome Forecast
Issued by NWS Raleigh/Durham, NC

Home | Current Version | Previous Version | Text Only | Print | Product List | Glossary On
Versions: 1 2 3 4 5 6 7 8 9 10 11 12 13 14 15 16 17 18 19 20 21 22 23 24 25 26 27 28 29 30 31 32 33 34
000
FTUS42 KRAH 010209 AAA
TAFFAY
TAF AMD
KFAY 010209Z 0102/0124 VRB04KT P6SM VCSH BKN050 OVC100
      TEMPO 0104/0108 5SM -SHRA BKN025 OVC040
     FM010800 VRB05KT 3SM SHRA BR BKN015 OVC025
     FM011600 VRB05KT 5SM TSRA BR BKN025CB=

USA.gov is the U.S. government's official web portal to all federal, state and local government web resources and services.